Time;durP1;ratioP1;P1;durP2;ratioP2;P2;SDS_P1;SDS_P2;PMS_P1;PMS_P2;Temp;Humidity;BMP_temperature;BMP_pressure;BME280_temperature;BME280_humidity;BME280_pressure;Samples;Min_cycle;Max_cycle;Signal;HPM_P1;HPM_P2
2021/12/20 00:02:21;;;;;;;9.50;5.80;;;;;;;;;;726815;189;619287;-64
2021/12/20 00:04:51;;;;;;;11.87;5.87;;;;;;;;;;727922;192;620567;-65
2021/12/20 00:07:13;;;;;;;8.23;5.20;;;;;;;;;;736847;189;628703;-65
2021/12/20 00:09:39;;;;;;;9.63;5.47;;;;;;;;;;735175;190;642674;-65
2021/12/20 00:12:05;;;;;;;7.22;5.30;;;;;;;;;;720122;190;918418;-65
2021/12/20 00:14:31;;;;;;;6.53;4.20;;;;;;;;;;727166;189;919338;-65
2021/12/20 00:16:57;;;;;;;11.47;5.23;;;;;;;;;;733703;189;918944;-64
2021/12/20 00:19:25;;;;;;;7.90;5.13;;;;;;;;;;727381;189;919371;-65
2021/12/20 00:21:48;;;;;;;17.83;4.90;;;;;;;;;;722635;189;919813;-64
2021/12/20 00:24:14;;;;;;;7.90;6.20;;;;;;;;;;727533;190;921693;-63
2021/12/20 00:26:40;;;;;;;11.80;4.45;;;;;;;;;;735465;189;919287;-65
2021/12/20 00:29:06;;;;;;;9.23;4.57;;;;;;;;;;730486;189;915606;-65
2021/12/20 00:31:32;;;;;;;15.20;5.37;;;;;;;;;;731638;186;916414;-65
2021/12/20 00:33:57;;;;;;;7.37;4.20;;;;;;;;;;727682;189;916022;-65
2021/12/20 00:36:26;;;;;;;9.23;3.90;;;;;;;;;;718725;190;912973;-65
2021/12/20 00:41:21;;;;;;;8.17;4.67;;;;;;;;;;725257;188;920265;-65
2021/12/20 00:43:46;;;;;;;8.50;4.60;;;;;;;;;;726393;189;919981;-64
2021/12/20 00:46:12;;;;;;;7.93;4.37;;;;;;;;;;728504;189;919532;-64
2021/12/20 00:48:38;;;;;;;5.57;4.12;;;;;;;;;;729408;189;919430;-65
2021/12/20 00:51:04;;;;;;;9.27;3.90;;;;;;;;;;735481;189;919351;-64
2021/12/20 00:53:30;;;;;;;11.83;4.20;;;;;;;;;;730316;189;920026;-65
2021/12/20 00:55:56;;;;;;;6.30;3.30;;;;;;;;;;724021;189;919680;-64
2021/12/20 00:58:22;;;;;;;5.50;3.97;;;;;;;;;;727947;189;919194;-63
2021/12/20 01:00:47;;;;;;;7.05;3.53;;;;;;;;;;726152;189;932660;-64
2021/12/20 01:03:13;;;;;;;7.33;3.50;;;;;;;;;;733678;189;920317;-64
2021/12/20 01:05:39;;;;;;;6.40;3.23;;;;;;;;;;728011;189;919481;-64
2021/12/20 01:08:06;;;;;;;6.53;4.07;;;;;;;;;;739116;189;919440;-64
2021/12/20 01:10:31;;;;;;;6.57;2.93;;;;;;;;;;724158;189;920395;-64
2021/12/20 01:12:59;;;;;;;5.90;4.13;;;;;;;;;;720729;189;919227;-64
2021/12/20 01:15:22;;;;;;;5.67;3.60;;;;;;;;;;732902;189;919541;-63
2021/12/20 01:17:48;;;;;;;7.20;3.90;;;;;;;;;;727569;189;919788;-65
2021/12/20 01:20:14;;;;;;;10.15;3.40;;;;;;;;;;721324;189;919583;-64
2021/12/20 01:22:41;;;;;;;9.70;4.93;;;;;;;;;;728398;189;918981;-64
2021/12/20 01:25:07;;;;;;;7.10;4.00;;;;;;;;;;724624;190;919370;-64
2021/12/20 01:27:33;;;;;;;7.37;4.13;;;;;;;;;;720268;193;919515;-64
2021/12/20 01:29:59;;;;;;;8.43;4.23;;;;;;;;;;729035;189;919921;-63
2021/12/20 01:32:25;;;;;;;10.93;4.40;;;;;;;;;;727479;189;919581;-64
2021/12/20 01:34:50;;;;;;;9.43;4.10;;;;;;;;;;720920;192;918848;-64
2021/12/20 01:37:16;;;;;;;5.80;4.07;;;;;;;;;;724213;190;919174;-64
2021/12/20 01:39:42;;;;;;;7.23;4.53;;;;;;;;;;730451;189;919626;-64
2021/12/20 01:42:08;;;;;;;9.23;4.43;;;;;;;;;;723939;188;920296;-64
2021/12/20 01:44:36;;;;;;;7.77;4.20;;;;;;;;;;728437;189;918305;-64
2021/12/20 01:47:02;;;;;;;8.30;5.60;;;;;;;;;;738232;186;916287;-64
2021/12/20 01:49:26;;;;;;;8.90;4.30;;;;;;;;;;725491;190;914775;-65
2021/12/20 01:52:13;;;;;;;7.25;3.97;;;;;;;;;;728077;188;915633;-64
2021/12/20 01:54:32;;;;;;;12.13;4.43;;;;;;;;;;722725;189;915686;-65
2021/12/20 01:56:58;;;;;;;10.67;5.43;;;;;;;;;;725122;189;915703;-66
2021/12/20 01:59:24;;;;;;;6.63;4.20;;;;;;;;;;718317;192;916093;-64
2021/12/20 02:01:51;;;;;;;8.00;5.27;;;;;;;;;;720954;189;915449;-66
2021/12/20 02:04:16;;;;;;;9.37;5.00;;;;;;;;;;719343;189;919936;-65
2021/12/20 02:06:46;;;;;;;11.00;5.00;;;;;;;;;;732631;189;614563;-64
2021/12/20 02:09:08;;;;;;;11.03;4.63;;;;;;;;;;729742;189;914118;-64
2021/12/20 02:11:34;;;;;;;6.10;4.23;;;;;;;;;;728519;186;916322;-63
2021/12/20 02:14:00;;;;;;;9.13;4.47;;;;;;;;;;727388;190;915825;-64
2021/12/20 02:16:26;;;;;;;5.90;4.13;;;;;;;;;;719753;189;917406;-64
2021/12/20 02:18:51;;;;;;;5.65;3.45;;;;;;;;;;730892;189;920290;-64
2021/12/20 02:21:17;;;;;;;17.30;5.37;;;;;;;;;;730496;189;916482;-64
2021/12/20 02:23:43;;;;;;;10.63;4.97;;;;;;;;;;717799;193;917584;-65
2021/12/20 02:26:11;;;;;;;10.03;4.20;;;;;;;;;;719551;190;916202;-64
2021/12/20 02:28:39;;;;;;;6.57;4.33;;;;;;;;;;719115;189;915415;-64
2021/12/20 02:39:00;;;;;;;4.70;3.10;;;;;;;;;;717257;192;917393;-66
2021/12/20 02:41:29;;;;;;;11.70;4.00;;;;;;;;;;726117;189;917094;-66
2021/12/20 02:43:56;;;;;;;6.32;3.08;;;;;;;;;;735012;189;918440;-63
2021/12/20 02:46:32;;;;;;;9.43;3.20;;;;;;;;;;736220;186;919934;-65
2021/12/20 02:48:47;;;;;;;7.67;3.07;;;;;;;;;;721854;189;920167;-64
2021/12/20 02:51:13;;;;;;;8.00;2.93;;;;;;;;;;718677;189;1016515;-64
2021/12/20 02:53:38;;;;;;;4.25;2.40;;;;;;;;;;723837;192;920380;-65
2021/12/20 02:56:04;;;;;;;3.57;2.40;;;;;;;;;;719667;192;913777;-64
2021/12/20 02:58:30;;;;;;;7.00;2.30;;;;;;;;;;734149;189;914093;-63
2021/12/20 03:00:56;;;;;;;5.07;2.30;;;;;;;;;;730049;191;912871;-64
2021/12/20 03:03:22;;;;;;;3.80;2.00;;;;;;;;;;720976;190;911422;-64
2021/12/20 03:05:48;;;;;;;4.27;2.13;;;;;;;;;;728498;189;913756;-65
2021/12/20 03:08:14;;;;;;;5.33;2.10;;;;;;;;;;730766;189;915822;-66
2021/12/20 03:10:42;;;;;;;5.10;1.77;;;;;;;;;;739934;189;915589;-64
2021/12/20 03:13:05;;;;;;;8.27;2.12;;;;;;;;;;718001;189;915756;-64
2021/12/20 03:15:31;;;;;;;5.30;1.97;;;;;;;;;;734488;189;915583;-64
2021/12/20 03:17:57;;;;;;;3.13;2.00;;;;;;;;;;739746;186;916430;-64
2021/12/20 03:20:23;;;;;;;4.37;2.17;;;;;;;;;;736027;189;921224;-64
2021/12/20 03:22:49;;;;;;;4.80;1.70;;;;;;;;;;731600;189;918762;-65
2021/12/20 03:25:14;;;;;;;6.30;2.73;;;;;;;;;;735603;190;916196;-65
2021/12/20 03:27:40;;;;;;;5.93;1.77;;;;;;;;;;718871;190;928310;-65
2021/12/20 03:30:07;;;;;;;4.23;1.80;;;;;;;;;;735483;189;916150;-65
2021/12/20 03:32:33;;;;;;;3.07;2.13;;;;;;;;;;726459;189;625657;-65
2021/12/20 03:34:59;;;;;;;5.30;2.03;;;;;;;;;;744098;187;903218;-65
2021/12/20 03:37:25;;;;;;;3.40;1.70;;;;;;;;;;736353;189;920654;-65
2021/12/20 03:39:50;;;;;;;3.90;1.60;;;;;;;;;;728818;191;919481;-65
2021/12/20 03:42:18;;;;;;;5.00;2.20;;;;;;;;;;722722;189;920759;-66
2021/12/20 03:44:44;;;;;;;2.70;1.55;;;;;;;;;;717977;192;1021531;-65
2021/12/20 03:47:08;;;;;;;2.83;1.50;;;;;;;;;;729359;189;919382;-65
2021/12/20 03:49:34;;;;;;;2.80;1.50;;;;;;;;;;722151;189;919671;-64
2021/12/20 03:52:00;;;;;;;3.20;1.60;;;;;;;;;;724026;189;919749;-65
2021/12/20 03:54:25;;;;;;;3.07;1.73;;;;;;;;;;733962;189;918967;-65
2021/12/20 03:56:51;;;;;;;5.57;1.37;;;;;;;;;;723606;189;942285;-69
2021/12/20 03:59:17;;;;;;;3.97;1.33;;;;;;;;;;732326;189;918020;-65
2021/12/20 04:01:43;;;;;;;6.43;1.70;;;;;;;;;;726556;189;944242;-65
2021/12/20 04:04:09;;;;;;;2.10;1.17;;;;;;;;;;728980;191;919420;-65
2021/12/20 04:06:36;;;;;;;6.63;1.93;;;;;;;;;;739793;189;920456;-65
2021/12/20 04:09:00;;;;;;;3.60;1.80;;;;;;;;;;726886;190;918780;-64
2021/12/20 04:11:26;;;;;;;3.05;1.73;;;;;;;;;;719542;190;920344;-65
2021/12/20 04:13:52;;;;;;;2.43;1.60;;;;;;;;;;723476;189;916445;-65
2021/12/20 04:16:18;;;;;;;3.60;1.40;;;;;;;;;;727054;187;915619;-65
2021/12/20 04:18:44;;;;;;;4.23;1.83;;;;;;;;;;733734;189;916153;-65
2021/12/20 04:21:10;;;;;;;3.17;1.67;;;;;;;;;;740275;189;913967;-66
2021/12/20 04:23:36;;;;;;;3.03;1.65;;;;;;;;;;720708;189;920678;-65
2021/12/20 04:26:01;;;;;;;3.50;1.90;;;;;;;;;;719742;189;919158;-64
2021/12/20 04:28:27;;;;;;;2.63;1.40;;;;;;;;;;730853;189;1020463;-64
2021/12/20 04:30:53;;;;;;;4.33;1.90;;;;;;;;;;732205;189;916564;-65
2021/12/20 04:33:19;;;;;;;3.57;2.17;;;;;;;;;;727642;191;921496;-65
2021/12/20 04:35:45;;;;;;;2.42;1.17;;;;;;;;;;734430;188;915918;-64
2021/12/20 04:38:11;;;;;;;2.63;1.53;;;;;;;;;;724729;190;915535;-64
2021/12/20 04:40:36;;;;;;;3.67;2.10;;;;;;;;;;724815;189;915518;-65
2021/12/20 04:43:02;;;;;;;2.83;1.63;;;;;;;;;;728249;189;919736;-65
2021/12/20 04:45:28;;;;;;;3.07;1.97;;;;;;;;;;735405;189;922274;-65
2021/12/20 04:47:54;;;;;;;4.53;1.77;;;;;;;;;;727172;188;918098;-65
2021/12/20 04:50:21;;;;;;;3.30;2.00;;;;;;;;;;733573;189;917621;-64
2021/12/20 04:52:46;;;;;;;3.30;1.60;;;;;;;;;;720472;189;918596;-64
2021/12/20 04:55:11;;;;;;;3.80;1.83;;;;;;;;;;716189;189;918822;-67
2021/12/20 04:57:37;;;;;;;2.67;1.60;;;;;;;;;;720042;189;919758;-65
2021/12/20 05:00:04;;;;;;;3.65;1.90;;;;;;;;;;717720;190;924990;-65
2021/12/20 05:02:30;;;;;;;3.70;1.50;;;;;;;;;;729947;189;919977;-64
2021/12/20 05:04:56;;;;;;;3.70;1.80;;;;;;;;;;728986;189;919351;-65
2021/12/20 05:07:23;;;;;;;3.00;1.80;;;;;;;;;;725782;189;919128;-64
2021/12/20 05:09:48;;;;;;;3.80;1.73;;;;;;;;;;733836;189;918778;-65
2021/12/20 05:12:14;;;;;;;2.70;1.40;;;;;;;;;;717317;189;1225871;-65
2021/12/20 05:14:40;;;;;;;5.90;1.80;;;;;;;;;;720468;189;920875;-65
2021/12/20 05:17:05;;;;;;;2.20;1.40;;;;;;;;;;724254;189;919993;-65
2021/12/20 05:19:31;;;;;;;2.90;1.43;;;;;;;;;;724206;189;918893;-64
2021/12/20 05:21:57;;;;;;;6.60;2.20;;;;;;;;;;730766;189;631653;-64
2021/12/20 05:24:23;;;;;;;4.07;2.00;;;;;;;;;;728662;190;616802;-64
2021/12/20 05:26:48;;;;;;;4.37;2.40;;;;;;;;;;735580;187;631561;-64
2021/12/20 05:29:14;;;;;;;4.97;2.20;;;;;;;;;;736186;189;915314;-63
2021/12/20 05:31:40;;;;;;;3.10;2.03;;;;;;;;;;728949;186;919667;-64
2021/12/20 05:34:06;;;;;;;8.73;1.97;;;;;;;;;;733240;189;628828;-64
2021/12/20 05:36:32;;;;;;;3.23;2.00;;;;;;;;;;723219;189;890558;-64
2021/12/20 05:38:58;;;;;;;2.83;1.50;;;;;;;;;;726248;189;885983;-64
2021/12/20 05:41:24;;;;;;;3.73;2.23;;;;;;;;;;738766;187;920425;-65
2021/12/20 05:43:49;;;;;;;3.00;2.17;;;;;;;;;;729324;189;918571;-64
2021/12/20 05:46:15;;;;;;;7.47;3.00;;;;;;;;;;728053;189;919168;-64
2021/12/20 05:48:41;;;;;;;3.50;2.17;;;;;;;;;;722901;189;919084;-63
2021/12/20 05:51:07;;;;;;;7.10;2.40;;;;;;;;;;726588;189;918207;-64
2021/12/20 05:53:33;;;;;;;3.47;1.83;;;;;;;;;;724974;189;915374;-64
2021/12/20 05:55:58;;;;;;;3.40;2.03;;;;;;;;;;726492;192;884932;-65
2021/12/20 05:58:24;;;;;;;6.63;1.97;;;;;;;;;;726136;189;626954;-64
2021/12/20 06:00:50;;;;;;;4.03;1.93;;;;;;;;;;733631;189;917770;-64
2021/12/20 06:03:16;;;;;;;2.80;2.40;;;;;;;;;;722888;189;919393;-64
2021/12/20 06:05:42;;;;;;;3.40;2.13;;;;;;;;;;727674;190;922644;-65
2021/12/20 06:08:08;;;;;;;2.40;1.60;;;;;;;;;;723079;189;918447;-63
2021/12/20 06:10:35;;;;;;;10.67;4.03;;;;;;;;;;727782;189;920009;-64
2021/12/20 06:13:00;;;;;;;3.50;1.83;;;;;;;;;;726472;189;917377;-63
2021/12/20 06:15:26;;;;;;;5.23;2.23;;;;;;;;;;727859;189;919019;-64
2021/12/20 06:17:51;;;;;;;3.83;1.90;;;;;;;;;;720326;190;919509;-64
2021/12/20 06:20:17;;;;;;;5.80;2.75;;;;;;;;;;724820;191;919657;-64
2021/12/20 06:22:43;;;;;;;14.03;5.60;;;;;;;;;;734025;190;918628;-64
2021/12/20 06:25:09;;;;;;;12.67;5.70;;;;;;;;;;717451;189;921446;-64
2021/12/20 06:27:40;;;;;;;16.40;7.00;;;;;;;;;;718647;189;916284;-64
2021/12/20 06:30:09;;;;;;;10.20;5.50;;;;;;;;;;725772;192;918068;-64
2021/12/20 06:32:35;;;;;;;5.33;3.37;;;;;;;;;;730615;189;915810;-64
2021/12/20 06:35:01;;;;;;;10.97;4.77;;;;;;;;;;726599;189;918687;-64
2021/12/20 06:37:27;;;;;;;12.10;5.77;;;;;;;;;;728878;186;912491;-64
2021/12/20 06:39:53;;;;;;;8.23;4.30;;;;;;;;;;731551;189;917969;-65
2021/12/20 06:42:18;;;;;;;7.17;2.87;;;;;;;;;;721158;189;938433;-64
2021/12/20 06:44:44;;;;;;;3.87;2.20;;;;;;;;;;725275;189;918852;-64
2021/12/20 06:47:10;;;;;;;6.33;2.37;;;;;;;;;;724272;189;915493;-64
2021/12/20 06:49:36;;;;;;;6.17;3.00;;;;;;;;;;723258;189;917940;-64
2021/12/20 06:52:03;;;;;;;6.87;2.90;;;;;;;;;;723209;189;918736;-64
2021/12/20 06:54:28;;;;;;;4.87;3.23;;;;;;;;;;731292;189;918910;-68
2021/12/20 06:56:54;;;;;;;7.33;2.83;;;;;;;;;;723663;189;919128;-64
2021/12/20 06:59:19;;;;;;;5.60;3.03;;;;;;;;;;728447;189;920048;-65
2021/12/20 07:01:45;;;;;;;5.63;2.93;;;;;;;;;;727659;186;921263;-63
2021/12/20 07:04:12;;;;;;;5.90;2.60;;;;;;;;;;732638;189;918475;-65
2021/12/20 07:06:37;;;;;;;4.87;2.87;;;;;;;;;;731713;187;919172;-64
2021/12/20 07:09:03;;;;;;;3.77;2.63;;;;;;;;;;722081;189;918860;-64
2021/12/20 07:11:29;;;;;;;8.47;4.60;;;;;;;;;;722114;193;920268;-64
2021/12/20 07:13:55;;;;;;;6.87;3.27;;;;;;;;;;718433;190;918085;-64
2021/12/20 07:16:20;;;;;;;7.63;4.27;;;;;;;;;;717807;192;917620;-64
2021/12/20 07:18:46;;;;;;;8.53;4.67;;;;;;;;;;731741;190;919220;-64
2021/12/20 07:21:12;;;;;;;7.03;3.47;;;;;;;;;;724222;189;920059;-64
2021/12/20 07:23:38;;;;;;;19.23;5.27;;;;;;;;;;725260;189;908581;-64
2021/12/20 07:26:04;;;;;;;25.90;10.60;;;;;;;;;;722700;190;914713;-64
2021/12/20 07:28:29;;;;;;;26.77;8.77;;;;;;;;;;723075;189;918101;-63
2021/12/20 07:30:55;;;;;;;12.27;4.67;;;;;;;;;;723682;189;920607;-64
2021/12/20 07:33:21;;;;;;;6.33;4.07;;;;;;;;;;717558;189;923879;-64
2021/12/20 07:35:48;;;;;;;11.70;4.40;;;;;;;;;;737841;186;937222;-64
2021/12/20 07:38:14;;;;;;;10.50;4.43;;;;;;;;;;733469;189;920361;-64
2021/12/20 07:40:42;;;;;;;22.58;7.97;;;;;;;;;;735501;189;918135;-64
2021/12/20 07:43:08;;;;;;;16.75;6.85;;;;;;;;;;728744;189;920069;-63
2021/12/20 07:45:35;;;;;;;7.80;3.10;;;;;;;;;;728484;189;920310;-63
2021/12/20 07:48:00;;;;;;;7.07;2.80;;;;;;;;;;731133;189;925470;-63
2021/12/20 07:50:26;;;;;;;4.87;2.42;;;;;;;;;;728581;187;1021258;-63
2021/12/20 07:52:52;;;;;;;5.83;2.63;;;;;;;;;;727037;192;919009;-63
2021/12/20 07:55:17;;;;;;;5.10;3.43;;;;;;;;;;732014;189;619112;-63
2021/12/20 07:57:43;;;;;;;8.07;2.57;;;;;;;;;;722659;189;919374;-63
2021/12/20 08:00:10;;;;;;;5.90;2.83;;;;;;;;;;732252;189;917807;-62
2021/12/20 08:02:36;;;;;;;6.70;3.27;;;;;;;;;;730373;189;924856;-63
2021/12/20 08:05:01;;;;;;;4.30;3.07;;;;;;;;;;721113;189;918542;-63
2021/12/20 08:07:27;;;;;;;5.22;2.37;;;;;;;;;;735384;189;919710;-63
2021/12/20 08:09:53;;;;;;;4.47;2.50;;;;;;;;;;720837;189;1013420;-63
2021/12/20 08:12:19;;;;;;;9.55;3.10;;;;;;;;;;732473;189;920984;-63
2021/12/20 08:14:45;;;;;;;7.80;3.30;;;;;;;;;;717839;189;919341;-63
2021/12/20 08:17:11;;;;;;;7.40;2.97;;;;;;;;;;724634;190;919981;-63
2021/12/20 08:19:36;;;;;;;12.23;2.87;;;;;;;;;;728601;189;917223;-63
2021/12/20 08:22:02;;;;;;;10.73;3.23;;;;;;;;;;725433;192;920482;-63
2021/12/20 08:24:28;;;;;;;4.50;2.40;;;;;;;;;;726415;189;919518;-63
2021/12/20 08:26:54;;;;;;;5.03;2.43;;;;;;;;;;717929;189;921505;-63
2021/12/20 08:29:23;;;;;;;3.42;2.70;;;;;;;;;;722733;189;1020348;-63
2021/12/20 08:31:46;;;;;;;7.47;2.47;;;;;;;;;;727441;190;918976;-63
2021/12/20 08:34:12;;;;;;;6.20;3.90;;;;;;;;;;720233;192;919818;-62
2021/12/20 08:36:37;;;;;;;9.40;2.80;;;;;;;;;;724808;190;943248;-63
2021/12/20 08:39:03;;;;;;;3.70;2.63;;;;;;;;;;720801;190;918241;-63
2021/12/20 08:41:29;;;;;;;6.63;3.20;;;;;;;;;;730213;189;919061;-64
2021/12/20 08:43:55;;;;;;;3.97;2.90;;;;;;;;;;729853;189;918797;-63
2021/12/20 08:46:21;;;;;;;5.20;2.97;;;;;;;;;;722802;190;920301;-64
2021/12/20 08:48:48;;;;;;;4.20;2.33;;;;;;;;;;733287;189;914263;-64
2021/12/20 08:51:12;;;;;;;6.60;3.93;;;;;;;;;;731269;189;916303;-64
2021/12/20 08:53:40;;;;;;;8.90;3.45;;;;;;;;;;723534;189;1030691;-64
2021/12/20 08:56:04;;;;;;;5.03;3.10;;;;;;;;;;736765;189;917784;-64
2021/12/20 08:58:30;;;;;;;10.20;5.70;;;;;;;;;;735000;189;917805;-64
2021/12/20 09:00:56;;;;;;;12.65;3.60;;;;;;;;;;735428;186;920306;-63
2021/12/20 09:03:22;;;;;;;8.43;3.78;;;;;;;;;;730936;191;918641;-63
2021/12/20 09:05:48;;;;;;;5.43;3.67;;;;;;;;;;726129;189;919275;-64
2021/12/20 09:08:16;;;;;;;10.67;6.07;;;;;;;;;;721572;192;920290;-64
2021/12/20 09:10:40;;;;;;;13.40;7.03;;;;;;;;;;702879;198;919117;-64
2021/12/20 09:13:05;;;;;;;9.50;5.40;;;;;;;;;;713628;194;933882;-64
2021/12/20 09:15:31;;;;;;;15.17;9.13;;;;;;;;;;701177;196;918948;-64
2021/12/20 09:17:57;;;;;;;7.53;4.60;;;;;;;;;;706767;192;1022851;-63
2021/12/20 09:20:23;;;;;;;9.63;5.03;;;;;;;;;;731162;189;920171;-64
2021/12/20 09:22:51;;;;;;;10.45;5.12;;;;;;;;;;718923;190;920563;-63
2021/12/20 09:25:15;;;;;;;9.20;5.10;;;;;;;;;;719048;189;918917;-62
2021/12/20 09:27:41;;;;;;;6.18;4.55;;;;;;;;;;730269;189;919751;-63
2021/12/20 09:30:07;;;;;;;6.80;4.03;;;;;;;;;;721641;190;918951;-62
2021/12/20 09:32:33;;;;;;;8.23;4.00;;;;;;;;;;717456;190;920551;-62
2021/12/20 09:34:59;;;;;;;8.93;4.30;;;;;;;;;;720499;191;919828;-62
2021/12/20 09:37:25;;;;;;;5.67;3.80;;;;;;;;;;721624;191;916581;-61
2021/12/20 09:39:55;;;;;;;9.20;4.37;;;;;;;;;;728513;189;919963;-61
2021/12/20 09:42:17;;;;;;;13.07;5.47;;;;;;;;;;719153;189;920887;-62
2021/12/20 09:44:42;;;;;;;6.17;4.80;;;;;;;;;;731481;189;917532;-60
2021/12/20 09:47:08;;;;;;;10.53;5.43;;;;;;;;;;718789;192;920154;-62
2021/12/20 09:49:34;;;;;;;11.88;6.57;;;;;;;;;;732619;189;920006;-61
2021/12/20 09:52:00;;;;;;;15.37;4.73;;;;;;;;;;736538;189;916690;-62
2021/12/20 09:54:26;;;;;;;8.47;3.90;;;;;;;;;;721567;189;920954;-61
2021/12/20 09:56:53;;;;;;;6.70;4.00;;;;;;;;;;734286;186;917947;-62
2021/12/20 09:59:18;;;;;;;17.70;6.25;;;;;;;;;;732942;189;918495;-62
2021/12/20 10:01:44;;;;;;;7.73;5.00;;;;;;;;;;736047;189;914951;-63
2021/12/20 10:04:10;;;;;;;7.45;5.37;;;;;;;;;;725547;189;916877;-63
2021/12/20 10:06:35;;;;;;;13.03;5.70;;;;;;;;;;719834;189;920346;-63
2021/12/20 10:09:10;;;;;;;8.03;5.07;;;;;;;;;;730537;190;914247;-62
2021/12/20 10:11:28;;;;;;;6.60;4.70;;;;;;;;;;726519;189;919109;-63
2021/12/20 10:13:59;;;;;;;9.03;4.70;;;;;;;;;;722603;189;1021972;-63
2021/12/20 10:16:25;;;;;;;8.37;3.93;;;;;;;;;;721043;189;916985;-64
2021/12/20 10:18:51;;;;;;;9.83;4.97;;;;;;;;;;724681;190;916111;-65
2021/12/20 10:21:16;;;;;;;6.93;4.77;;;;;;;;;;723142;189;915411;-63
2021/12/20 10:23:44;;;;;;;10.33;4.80;;;;;;;;;;726879;192;914705;-65
2021/12/20 10:26:09;;;;;;;8.80;4.30;;;;;;;;;;733169;189;915241;-65
2021/12/20 10:28:35;;;;;;;7.10;4.80;;;;;;;;;;730323;189;628854;-64
2021/12/20 10:31:03;;;;;;;8.47;4.80;;;;;;;;;;723959;186;810628;-65
2021/12/20 10:33:29;;;;;;;7.23;5.20;;;;;;;;;;727689;189;629588;-63
2021/12/20 10:35:55;;;;;;;9.30;4.93;;;;;;;;;;719899;190;915829;-65
2021/12/20 10:38:22;;;;;;;6.30;4.70;;;;;;;;;;726502;189;635557;-64
2021/12/20 10:40:48;;;;;;;8.47;5.80;;;;;;;;;;730336;189;914458;-65
2021/12/20 10:43:15;;;;;;;7.47;5.70;;;;;;;;;;740875;189;915874;-65
2021/12/20 10:45:39;;;;;;;7.90;4.07;;;;;;;;;;727376;189;925841;-65
2021/12/20 10:48:07;;;;;;;9.17;4.80;;;;;;;;;;722224;189;916740;-65
2021/12/20 10:50:34;;;;;;;9.40;5.27;;;;;;;;;;728670;189;915597;-65
2021/12/20 10:53:14;;;;;;;8.20;4.27;;;;;;;;;;723832;189;915988;-64
2021/12/20 10:55:40;;;;;;;7.97;4.40;;;;;;;;;;719019;192;916061;-66
2021/12/20 10:58:12;;;;;;;7.87;4.50;;;;;;;;;;724954;190;916196;-66
2021/12/20 11:00:39;;;;;;;14.60;5.93;;;;;;;;;;726866;189;915895;-66
2021/12/20 11:10:52;;;;;;;7.37;4.67;;;;;;;;;;735594;189;915657;-66
2021/12/20 11:13:20;;;;;;;10.17;5.53;;;;;;;;;;723898;190;915773;-65
2021/12/20 11:15:44;;;;;;;11.80;4.97;;;;;;;;;;732722;189;909404;-66
2021/12/20 11:18:14;;;;;;;8.90;5.18;;;;;;;;;;725653;189;916820;-68
2021/12/20 11:20:39;;;;;;;8.23;5.60;;;;;;;;;;724281;191;916585;-66
2021/12/20 11:23:06;;;;;;;10.98;5.82;;;;;;;;;;734045;189;918782;-66
2021/12/20 11:25:31;;;;;;;4.80;3.80;;;;;;;;;;725789;188;914820;-66
2021/12/20 11:27:57;;;;;;;9.60;6.13;;;;;;;;;;731108;189;916071;-65
2021/12/20 11:30:23;;;;;;;7.77;5.13;;;;;;;;;;720836;189;914348;-65
2021/12/20 11:32:49;;;;;;;7.80;5.20;;;;;;;;;;732411;189;916415;-66
2021/12/20 11:35:14;;;;;;;7.63;4.80;;;;;;;;;;720032;189;916923;-65
2021/12/20 11:37:41;;;;;;;7.73;5.50;;;;;;;;;;729551;189;924228;-66
2021/12/20 11:40:07;;;;;;;9.17;5.80;;;;;;;;;;739327;189;915994;-65
2021/12/20 11:42:33;;;;;;;16.53;5.07;;;;;;;;;;720660;189;914956;-65
2021/12/20 11:44:58;;;;;;;7.80;4.83;;;;;;;;;;726769;191;916565;-65
2021/12/20 11:47:31;;;;;;;6.87;4.67;;;;;;;;;;724570;190;916343;-65
2021/12/20 11:49:58;;;;;;;6.60;4.20;;;;;;;;;;740491;189;920915;-66
2021/12/20 11:52:24;;;;;;;15.13;5.77;;;;;;;;;;726103;189;1021178;-66
2021/12/20 11:54:51;;;;;;;8.40;4.97;;;;;;;;;;730795;189;913972;-65
2021/12/20 11:57:22;;;;;;;6.53;4.20;;;;;;;;;;729776;186;914364;-65
2021/12/20 11:59:49;;;;;;;7.47;4.57;;;;;;;;;;738574;189;913826;-67
2021/12/20 12:02:23;;;;;;;4.53;3.63;;;;;;;;;;730849;189;915714;-66
2021/12/20 12:05:07;;;;;;;6.53;4.40;;;;;;;;;;734038;189;912217;-66
2021/12/20 12:07:35;;;;;;;7.50;4.73;;;;;;;;;;730125;190;911913;-66
2021/12/20 12:09:59;;;;;;;8.00;3.87;;;;;;;;;;733937;189;916156;-64
2021/12/20 12:12:25;;;;;;;5.43;4.47;;;;;;;;;;720609;189;915961;-65
2021/12/20 12:15:03;;;;;;;7.10;3.80;;;;;;;;;;734117;189;1016697;-65
2021/12/20 12:17:25;;;;;;;7.90;5.03;;;;;;;;;;722193;190;919326;-66
2021/12/20 12:19:52;;;;;;;7.20;3.70;;;;;;;;;;720643;189;916222;-66
2021/12/20 12:22:22;;;;;;;6.03;4.43;;;;;;;;;;718535;189;911386;-65
2021/12/20 12:24:50;;;;;;;4.63;3.70;;;;;;;;;;724698;189;928273;-65
2021/12/20 12:27:33;;;;;;;8.30;3.80;;;;;;;;;;728331;191;920655;-65
2021/12/20 12:30:04;;;;;;;5.13;4.13;;;;;;;;;;719323;189;1017890;-64
2021/12/20 12:32:30;;;;;;;6.73;4.70;;;;;;;;;;723245;192;918829;-66
2021/12/20 12:34:56;;;;;;;5.17;4.00;;;;;;;;;;718077;189;919739;-65
2021/12/20 12:37:25;;;;;;;8.17;4.50;;;;;;;;;;727040;188;919657;-65
2021/12/20 12:39:48;;;;;;;6.30;4.23;;;;;;;;;;725857;189;919940;-66
2021/12/20 12:42:14;;;;;;;5.70;4.85;;;;;;;;;;729678;189;914349;-66
2021/12/20 12:44:40;;;;;;;5.37;4.50;;;;;;;;;;733198;189;919205;-65
2021/12/20 12:47:12;;;;;;;6.87;4.37;;;;;;;;;;726056;188;919566;-66
2021/12/20 12:49:36;;;;;;;6.73;4.30;;;;;;;;;;729652;189;919714;-65
2021/12/20 12:52:01;;;;;;;4.20;3.77;;;;;;;;;;729339;189;914849;-66
2021/12/20 12:54:35;;;;;;;11.98;5.45;;;;;;;;;;726350;190;927133;-66
2021/12/20 12:57:07;;;;;;;7.30;4.03;;;;;;;;;;728767;189;919794;-65
2021/12/20 12:59:33;;;;;;;7.10;4.37;;;;;;;;;;729718;189;914399;-66
2021/12/20 13:01:58;;;;;;;9.37;4.50;;;;;;;;;;719604;189;920326;-66
2021/12/20 13:04:30;;;;;;;12.70;4.50;;;;;;;;;;724480;189;957236;-65
2021/12/20 13:06:56;;;;;;;6.00;3.80;;;;;;;;;;722503;190;900013;-65
2021/12/20 13:09:31;;;;;;;4.90;3.70;;;;;;;;;;726255;190;919759;-66
2021/12/20 13:11:51;;;;;;;6.50;4.13;;;;;;;;;;723579;189;916722;-66
2021/12/20 13:14:19;;;;;;;6.60;3.90;;;;;;;;;;725925;191;916290;-65
2021/12/20 13:16:49;;;;;;;7.40;5.03;;;;;;;;;;723315;189;914851;-66
2021/12/20 13:19:16;;;;;;;6.77;4.90;;;;;;;;;;726860;189;913788;-66
2021/12/20 13:24:12;;;;;;;6.80;4.50;;;;;;;;;;720801;192;917191;-66
2021/12/20 13:26:38;;;;;;;9.00;5.17;;;;;;;;;;726690;189;1015315;-66
2021/12/20 13:29:04;;;;;;;6.90;4.60;;;;;;;;;;733671;189;920733;-66
2021/12/20 13:31:30;;;;;;;8.38;3.58;;;;;;;;;;727594;189;909288;-65
2021/12/20 13:33:56;;;;;;;6.40;4.20;;;;;;;;;;723696;189;946717;-65
2021/12/20 13:36:22;;;;;;;6.37;4.03;;;;;;;;;;740249;186;918991;-65
2021/12/20 13:38:47;;;;;;;5.90;3.70;;;;;;;;;;731416;189;919861;-66
2021/12/20 13:41:16;;;;;;;5.13;4.23;;;;;;;;;;723082;189;921386;-66
2021/12/20 13:43:43;;;;;;;5.63;4.00;;;;;;;;;;729452;189;919092;-67
2021/12/20 13:46:11;;;;;;;5.80;4.20;;;;;;;;;;721104;189;919033;-66
2021/12/20 13:48:36;;;;;;;12.73;5.47;;;;;;;;;;726517;189;1022119;-66
2021/12/20 13:51:02;;;;;;;7.87;4.90;;;;;;;;;;727488;189;919333;-65
2021/12/20 13:53:28;;;;;;;8.00;5.27;;;;;;;;;;733741;189;918507;-65
2021/12/20 13:55:54;;;;;;;8.33;4.90;;;;;;;;;;733488;186;920072;-66
2021/12/20 13:58:20;;;;;;;6.53;4.57;;;;;;;;;;728527;189;919247;-66
2021/12/20 14:00:45;;;;;;;10.00;5.87;;;;;;;;;;724959;189;919666;-66
2021/12/20 14:03:11;;;;;;;6.43;5.67;;;;;;;;;;724138;189;920057;-66
2021/12/20 14:05:39;;;;;;;8.15;5.62;;;;;;;;;;728054;189;919887;-66
2021/12/20 14:08:03;;;;;;;10.10;6.67;;;;;;;;;;726375;189;918985;-66
2021/12/20 14:10:30;;;;;;;8.87;6.87;;;;;;;;;;730093;189;919791;-66
2021/12/20 14:13:00;;;;;;;10.13;6.77;;;;;;;;;;722107;192;919601;-66
2021/12/20 14:15:25;;;;;;;8.67;5.80;;;;;;;;;;728872;190;919362;-65
2021/12/20 14:17:51;;;;;;;16.33;6.23;;;;;;;;;;734094;188;904270;-66
2021/12/20 14:20:17;;;;;;;10.45;5.65;;;;;;;;;;720400;193;919250;-65
2021/12/20 14:22:49;;;;;;;7.93;5.20;;;;;;;;;;731596;189;919095;-66
2021/12/20 14:25:14;;;;;;;7.67;5.03;;;;;;;;;;722315;190;918713;-66
2021/12/20 14:27:40;;;;;;;6.95;5.20;;;;;;;;;;723136;189;918463;-66
2021/12/20 14:30:06;;;;;;;10.53;6.50;;;;;;;;;;720027;192;919828;-65
2021/12/20 14:32:34;;;;;;;11.97;6.00;;;;;;;;;;718931;190;920168;-65
2021/12/20 14:35:00;;;;;;;7.23;5.17;;;;;;;;;;723966;189;1022781;-65
2021/12/20 14:37:26;;;;;;;6.83;5.73;;;;;;;;;;723615;189;919448;-66
2021/12/20 14:39:52;;;;;;;14.05;7.87;;;;;;;;;;729585;189;919510;-66
2021/12/20 14:42:17;;;;;;;11.10;7.87;;;;;;;;;;729827;189;918240;-66